Time,TemperatureF,DewpointF,PressureIn,WindDirection,WindDirectionDegrees,WindSpeedMPH,WindSpeedGustMPH,Humidity,HourlyPrecipIn,Conditions,Clouds,dailyrainin,SolarRadiationWatts/m^2,SoftwareType,DateUTC
2013-08-28 12:02:00,92.0,66.0,-100.00,WSW,250,5.0,9.0,42,0.00,,,0.00,868.000000,,2013-08-28 17:02:00,
2013-08-28 12:24:00,92.0,66.0,-100.00,WSW,250,5.0,9.0,42,0.00,,,0.00,868.000000,,2013-08-28 17:24:00,
2013-08-28 12:35:00,92.0,66.0,-100.00,WSW,250,5.0,9.0,42,0.00,,,0.00,868.000000,,2013-08-28 17:35:00,
2013-08-28 12:44:00,92.0,66.0,-100.00,WSW,250,5.0,9.0,42,0.00,,,0.00,868.000000,,2013-08-28 17:44:00,
2013-08-28 12:52:00,92.0,66.0,-100.00,WSW,250,5.0,9.0,42,0.00,,,0.00,868.000000,,2013-08-28 17:52:00,
2013-08-28 13:02:00,94.0,66.0,-100.00,West,262,6.0,11.0,40,0.00,,,0.00,964.000000,,2013-08-28 18:02:00,
2013-08-28 13:22:00,94.0,66.0,-100.00,West,262,6.0,11.0,40,0.00,,,0.00,964.000000,,2013-08-28 18:22:00,
2013-08-28 13:32:00,94.0,66.0,-100.00,West,262,6.0,11.0,40,0.00,,,0.00,964.000000,,2013-08-28 18:32:00,
2013-08-28 13:42:00,94.0,66.0,-100.00,West,262,6.0,11.0,40,0.00,,,0.00,964.000000,,2013-08-28 18:42:00,
2013-08-28 13:53:00,94.0,66.0,-100.00,West,262,6.0,11.0,40,0.00,,,0.00,964.000000,,2013-08-28 18:53:00,
2013-08-28 14:02:00,95.0,65.0,-100.00,West,271,5.0,9.0,38,0.00,,,0.00,893.000000,,2013-08-28 19:02:00,
2013-08-28 14:22:00,95.0,65.0,-100.00,West,271,5.0,9.0,38,0.00,,,0.00,893.000000,,2013-08-28 19:22:00,
2013-08-28 14:32:00,95.0,65.0,-100.00,West,271,5.0,9.0,38,0.00,,,0.00,893.000000,,2013-08-28 19:32:00,
2013-08-28 14:42:00,95.0,65.0,-100.00,West,271,5.0,9.0,38,0.00,,,0.00,893.000000,,2013-08-28 19:42:00,
2013-08-28 14:52:00,95.0,65.0,-100.00,West,271,5.0,9.0,38,0.00,,,0.00,893.000000,,2013-08-28 19:52:00,
2013-08-28 15:23:00,98.0,66.0,-100.00,South,178,4.0,10.0,36,0.00,,,0.00,887.000000,,2013-08-28 20:23:00,
2013-08-28 15:32:00,98.0,66.0,-100.00,South,178,4.0,10.0,36,0.00,,,0.00,887.000000,,2013-08-28 20:32:00,
2013-08-28 15:43:00,98.0,66.0,-100.00,South,178,4.0,10.0,36,0.00,,,0.00,887.000000,,2013-08-28 20:43:00,
2013-08-28 15:52:00,98.0,66.0,-100.00,South,178,4.0,10.0,36,0.00,,,0.00,887.000000,,2013-08-28 20:52:00,
2013-08-28 16:01:00,98.0,66.0,-100.00,South,178,4.0,10.0,36,0.00,,,0.00,887.000000,,2013-08-28 21:01:00,
2013-08-28 16:02:00,98.0,64.0,-100.00,SW,223,4.0,9.0,33,0.00,,,0.00,834.000000,,2013-08-28 21:02:00,
2013-08-28 16:22:00,98.0,64.0,-100.00,SW,223,4.0,9.0,33,0.00,,,0.00,834.000000,,2013-08-28 21:22:00,
2013-08-28 16:35:00,98.0,64.0,-100.00,SW,223,4.0,9.0,33,0.00,,,0.00,834.000000,,2013-08-28 21:35:00,
2013-08-28 16:44:00,98.0,64.0,-100.00,SW,223,4.0,9.0,33,0.00,,,0.00,834.000000,,2013-08-28 21:44:00,
2013-08-28 16:57:00,98.0,64.0,-100.00,SW,223,4.0,9.0,33,0.00,,,0.00,834.000000,,2013-08-28 21:57:00,
2013-08-28 17:02:00,99.0,62.0,-100.00,SSW,193,4.0,7.0,30,0.00,,,0.00,653.000000,,2013-08-28 22:02:00,
2013-08-28 17:25:00,99.0,62.0,-100.00,SSW,193,4.0,7.0,30,0.00,,,0.00,653.000000,,2013-08-28 22:25:00,
2013-08-28 17:34:00,99.0,62.0,-100.00,SSW,193,4.0,7.0,30,0.00,,,0.00,653.000000,,2013-08-28 22:34:00,
2013-08-28 17:43:00,99.0,62.0,-100.00,SSW,193,4.0,7.0,30,0.00,,,0.00,653.000000,,2013-08-28 22:43:00,
2013-08-28 17:54:00,99.0,62.0,-100.00,SSW,193,4.0,7.0,30,0.00,,,0.00,653.000000,,2013-08-28 22:54:00,
2013-08-28 18:02:00,98.0,64.0,-100.00,SSW,193,3.0,9.0,33,0.00,,,0.00,438.000000,,2013-08-28 23:02:00,
2013-08-28 18:22:00,98.0,64.0,-100.00,SSW,193,3.0,9.0,33,0.00,,,0.00,438.000000,,2013-08-28 23:22:00,
2013-08-28 18:33:00,98.0,64.0,-100.00,SSW,193,3.0,9.0,33,0.00,,,0.00,438.000000,,2013-08-28 23:33:00,
2013-08-28 18:42:00,98.0,64.0,-100.00,SSW,193,3.0,9.0,33,0.00,,,0.00,438.000000,,2013-08-28 23:42:00,
2013-08-28 18:53:00,98.0,64.0,-100.00,SSW,193,3.0,9.0,33,0.00,,,0.00,438.000000,,2013-08-28 23:53:00,
2013-08-28 20:02:00,85.0,69.0,-100.00,West,279,0.0,2.0,58,0.00,,,0.00,35.000000,,2013-08-29 01:02:00,
2013-08-28 20:22:00,85.0,69.0,-100.00,West,279,0.0,2.0,58,0.00,,,0.00,35.000000,,2013-08-29 01:22:00,
2013-08-28 20:32:00,85.0,69.0,-100.00,West,279,0.0,2.0,58,0.00,,,0.00,35.000000,,2013-08-29 01:32:00,
2013-08-28 20:42:00,85.0,69.0,-100.00,West,279,0.0,2.0,58,0.00,,,0.00,35.000000,,2013-08-29 01:42:00,
2013-08-28 20:52:00,85.0,69.0,-100.00,West,279,0.0,2.0,58,0.00,,,0.00,35.000000,,2013-08-29 01:52:00,
2013-08-28 21:02:00,81.0,71.0,-100.00,North,7,0.0,0.0,71,0.00,,,0.00,0.000000,,2013-08-29 02:02:00,
2013-08-28 21:22:00,81.0,71.0,-100.00,North,7,0.0,0.0,71,0.00,,,0.00,0.000000,,2013-08-29 02:22:00,
2013-08-28 21:32:00,81.0,71.0,-100.00,North,7,0.0,0.0,71,0.00,,,0.00,0.000000,,2013-08-29 02:32:00,
2013-08-28 21:43:00,81.0,71.0,-100.00,North,7,0.0,0.0,71,0.00,,,0.00,0.000000,,2013-08-29 02:43:00,
2013-08-28 21:52:00,81.0,71.0,-100.00,North,7,0.0,0.0,71,0.00,,,0.00,0.000000,,2013-08-29 02:52:00,
2013-08-28 22:02:00,78.0,71.0,-100.00,NNW,342,0.0,0.0,78,0.00,,,0.00,0.000000,,2013-08-29 03:02:00,
2013-08-28 22:23:00,78.0,71.0,-100.00,NNW,342,0.0,0.0,78,0.00,,,0.00,0.000000,,2013-08-29 03:23:00,
2013-08-28 22:37:00,78.0,71.0,-100.00,NNW,342,0.0,0.0,78,0.00,,,0.00,0.000000,,2013-08-29 03:37:00,
2013-08-28 22:45:00,78.0,71.0,-100.00,NNW,342,0.0,0.0,78,0.00,,,0.00,0.000000,,2013-08-29 03:45:00,
2013-08-28 22:57:00,78.0,71.0,-100.00,NNW,342,0.0,0.0,78,0.00,,,0.00,0.000000,,2013-08-29 03:57:00,
2013-08-28 23:02:00,76.0,68.0,-100.00,ESE,120,0.0,3.0,77,0.00,,,0.00,0.000000,,2013-08-29 04:02:00,
2013-08-28 23:28:00,76.0,68.0,-100.00,ESE,120,0.0,3.0,77,0.00,,,0.00,0.000000,,2013-08-29 04:28:00,
2013-08-28 23:37:00,76.0,68.0,-100.00,ESE,120,0.0,3.0,77,0.00,,,0.00,0.000000,,2013-08-29 04:37:00,
2013-08-28 23:46:00,76.0,68.0,-100.00,ESE,120,0.0,3.0,77,0.00,,,0.00,0.000000,,2013-08-29 04:46:00,
2013-08-28 23:54:00,76.0,68.0,-100.00,ESE,120,0.0,3.0,77,0.00,,,0.00,0.000000,,2013-08-29 04:54:00,